Time;durP1;ratioP1;P1;durP2;ratioP2;P2;SDS_P1;SDS_P2;PMS_P1;PMS_P2;Temp;Humidity;BMP_temperature;BMP_pressure;BME280_temperature;BME280_humidity;BME280_pressure;Samples;Min_cycle;Max_cycle;Signal;HPM_P1;HPM_P2
2023/10/05 00:02:17;;;;;;;0.40;0.30;;;20.40;99.90;;;;;;5073715;28;20200;-74
2023/10/05 00:04:50;;;;;;;0.80;0.40;;;20.30;99.90;;;;;;5078325;28;20197;-79
2023/10/05 00:07:23;;;;;;;0.73;0.30;;;20.50;99.90;;;;;;5067750;28;20196;-79
2023/10/05 00:09:56;;;;;;;0.73;0.32;;;20.50;99.90;;;;;;5072838;28;20193;-76
2023/10/05 00:12:28;;;;;;;1.58;0.50;;;20.60;99.90;;;;;;5072287;28;20197;-76
2023/10/05 00:15:11;;;;;;;0.63;0.30;;;20.70;99.90;;;;;;5068693;28;20238;-78
2023/10/05 00:17:42;;;;;;;0.45;0.28;;;20.60;99.90;;;;;;5071189;28;20221;-73
2023/10/05 00:20:24;;;;;;;0.93;0.30;;;20.70;99.90;;;;;;5074288;28;20192;-73
2023/10/05 00:22:57;;;;;;;1.13;0.38;;;20.80;99.90;;;;;;5075362;28;20196;-82
2023/10/05 00:25:29;;;;;;;1.23;0.30;;;21.00;99.90;;;;;;5074703;28;20196;-79
2023/10/05 00:28:04;;;;;;;1.30;0.35;;;20.90;99.90;;;;;;5072099;28;20216;-76
2023/10/05 00:30:35;;;;;;;1.48;0.45;;;20.90;99.90;;;;;;5077521;28;20202;-75
2023/10/05 00:33:10;;;;;;;0.98;0.30;;;20.80;99.90;;;;;;5075409;28;20232;-80
2023/10/05 00:35:42;;;;;;;0.82;0.28;;;21.00;99.90;;;;;;5071635;28;20192;-80
2023/10/05 00:38:14;;;;;;;3.60;0.55;;;21.00;99.90;;;;;;5080332;28;20226;-82
2023/10/05 00:40:56;;;;;;;1.65;0.30;;;21.20;99.90;;;;;;5079607;28;20189;-81
2023/10/05 00:43:27;;;;;;;0.70;0.50;;;21.30;99.90;;;;;;5074002;28;20221;-79
2023/10/05 00:45:58;;;;;;;0.80;0.40;;;21.50;99.90;;;;;;5074288;28;20233;-74
2023/10/05 00:48:34;;;;;;;1.25;0.40;;;21.50;99.90;;;;;;5069548;28;20243;-75
2023/10/05 00:51:12;;;;;;;1.38;0.30;;;21.60;99.90;;;;;;5070648;28;20215;-85
2023/10/05 00:53:47;;;;;;;1.35;0.40;;;21.60;98.40;;;;;;5069478;28;20665;-78
2023/10/05 00:56:22;;;;;;;0.30;0.20;;;21.60;98.10;;;;;;5071196;28;20250;-80
2023/10/05 00:58:55;;;;;;;0.40;0.22;;;21.60;96.60;;;;;;5081684;28;20219;-82
2023/10/05 01:01:32;;;;;;;0.68;0.40;;;21.70;96.40;;;;;;5079830;28;20190;-79
2023/10/05 01:04:20;;;;;;;0.95;0.35;;;21.80;97.10;;;;;;5079945;28;20280;-78
2023/10/05 01:07:07;;;;;;;1.65;0.50;;;21.90;97.40;;;;;;5072651;28;20617;-78
2023/10/05 01:10:21;;;;;;;1.42;0.40;;;22.10;96.70;;;;;;5071790;28;20193;-81
2023/10/05 01:12:47;;;;;;;0.95;0.40;;;22.30;95.10;;;;;;5066631;28;20225;-73
2023/10/05 01:15:22;;;;;;;0.55;0.30;;;22.40;94.00;;;;;;5075480;28;20652;-72
2023/10/05 01:17:54;;;;;;;0.68;0.30;;;22.50;95.50;;;;;;5058749;28;20217;-76
2023/10/05 01:20:25;;;;;;;0.30;0.20;;;22.60;95.60;;;;;;5074994;28;20199;-74
2023/10/05 01:22:58;;;;;;;0.85;0.43;;;22.60;95.00;;;;;;5073520;28;20193;-76
2023/10/05 01:25:30;;;;;;;3.60;0.30;;;22.70;94.70;;;;;;5073638;28;20281;-80
2023/10/05 01:28:01;;;;;;;0.47;0.20;;;22.80;94.00;;;;;;5072102;28;20207;-73
2023/10/05 01:30:33;;;;;;;1.05;0.40;;;22.50;93.30;;;;;;5067740;28;20247;-75
2023/10/05 01:33:05;;;;;;;0.90;0.30;;;22.60;93.10;;;;;;5071388;28;20228;-77
2023/10/05 01:35:37;;;;;;;0.63;0.20;;;22.60;92.60;;;;;;5070272;28;20193;-81
2023/10/05 01:38:09;;;;;;;0.75;0.50;;;22.60;91.30;;;;;;5073900;28;20250;-79
2023/10/05 01:40:47;;;;;;;0.98;0.50;;;22.50;89.60;;;;;;5069883;28;20228;-79
2023/10/05 01:43:18;;;;;;;4.25;0.40;;;22.50;87.10;;;;;;5072648;28;20244;-74
2023/10/05 01:45:50;;;;;;;1.52;0.38;;;22.40;87.30;;;;;;5078433;28;20196;-78
2023/10/05 01:48:26;;;;;;;0.52;0.20;;;22.30;85.00;;;;;;5073404;28;20204;-76
2023/10/05 01:51:01;;;;;;;0.88;0.65;;;22.30;85.30;;;;;;5068089;28;20194;-79
2023/10/05 01:53:32;;;;;;;0.65;0.20;;;22.30;84.20;;;;;;5067578;28;20203;-80
2023/10/05 01:56:05;;;;;;;0.88;0.40;;;22.30;83.50;;;;;;5068904;28;20193;-80
2023/10/05 01:58:39;;;;;;;1.27;0.30;;;22.40;83.70;;;;;;5071975;28;20217;-76
2023/10/05 02:01:10;;;;;;;3.03;0.40;;;22.40;84.10;;;;;;5072827;28;20189;-78
2023/10/05 02:03:41;;;;;;;0.73;0.43;;;22.40;83.20;;;;;;5065806;28;20197;-77
2023/10/05 02:06:15;;;;;;;1.58;0.32;;;22.50;83.30;;;;;;5073241;28;20188;-77
2023/10/05 02:08:46;;;;;;;0.73;0.40;;;22.50;82.20;;;;;;5072876;28;20232;-79
2023/10/05 02:11:24;;;;;;;1.38;0.60;;;22.50;83.40;;;;;;5071534;28;20195;-80
2023/10/05 02:13:57;;;;;;;0.68;0.32;;;22.50;82.80;;;;;;5071816;28;20188;-77
2023/10/05 02:16:28;;;;;;;0.52;0.20;;;22.60;82.00;;;;;;5071133;28;20273;-76
2023/10/05 02:19:02;;;;;;;1.85;0.30;;;22.60;81.00;;;;;;5070899;28;20610;-80
2023/10/05 02:21:36;;;;;;;0.40;0.40;;;22.70;80.00;;;;;;5065385;28;20189;-74
2023/10/05 02:24:16;;;;;;;2.78;0.30;;;22.60;79.90;;;;;;5071534;28;20188;-77
2023/10/05 02:27:09;;;;;;;0.73;0.25;;;22.60;81.20;;;;;;5069434;28;20185;-80
2023/10/05 02:29:43;;;;;;;0.35;0.28;;;22.70;80.70;;;;;;5069347;28;20229;-77
2023/10/05 02:32:21;;;;;;;0.88;0.30;;;22.60;80.40;;;;;;5072054;28;20555;-76
2023/10/05 02:34:59;;;;;;;1.02;0.28;;;22.70;82.20;;;;;;5072989;28;20633;-78
2023/10/05 02:37:36;;;;;;;1.38;0.50;;;22.80;80.90;;;;;;5070751;28;20250;-76
2023/10/05 02:40:10;;;;;;;1.70;0.45;;;22.80;80.90;;;;;;5068530;28;20197;-78
2023/10/05 02:42:45;;;;;;;1.02;0.40;;;22.90;79.30;;;;;;5071402;28;20301;-80
2023/10/05 02:45:17;;;;;;;0.80;0.30;;;22.80;78.80;;;;;;5070791;28;20605;-78
2023/10/05 02:47:48;;;;;;;1.38;0.60;;;22.70;79.90;;;;;;5071270;28;20623;-78
2023/10/05 02:50:19;;;;;;;1.52;0.30;;;22.70;78.10;;;;;;5069467;28;20612;-74
2023/10/05 02:52:50;;;;;;;0.60;0.30;;;22.60;78.10;;;;;;5072771;28;20224;-71
2023/10/05 02:55:23;;;;;;;1.73;0.30;;;22.60;78.30;;;;;;5070282;28;20548;-73
2023/10/05 02:57:55;;;;;;;2.00;0.40;;;22.70;79.30;;;;;;5073046;28;20653;-75
2023/10/05 03:00:27;;;;;;;0.88;0.40;;;22.70;79.10;;;;;;5071104;28;20316;-73
2023/10/05 03:03:01;;;;;;;0.77;0.30;;;22.70;77.60;;;;;;5071882;28;20197;-72
2023/10/05 03:05:35;;;;;;;0.73;0.38;;;22.70;78.30;;;;;;5072568;28;20528;-74
2023/10/05 03:08:06;;;;;;;0.85;0.30;;;22.70;76.60;;;;;;5071713;28;20266;-77
2023/10/05 03:10:43;;;;;;;2.03;0.30;;;22.70;76.90;;;;;;5072709;28;20637;-75
2023/10/05 03:13:18;;;;;;;1.88;0.30;;;22.70;76.80;;;;;;5072613;28;20293;-75
2023/10/05 03:15:54;;;;;;;1.90;0.40;;;22.70;75.80;;;;;;5073850;28;20414;-77
2023/10/05 03:18:25;;;;;;;1.30;0.60;;;22.70;75.80;;;;;;5076543;28;20256;-75
2023/10/05 03:20:58;;;;;;;0.93;0.30;;;22.70;76.80;;;;;;5074080;28;20196;-73
2023/10/05 03:23:28;;;;;;;1.25;0.50;;;22.70;76.80;;;;;;5077289;28;20196;-72
2023/10/05 03:25:59;;;;;;;0.95;0.35;;;22.60;76.90;;;;;;5077212;28;20184;-72
2023/10/05 03:28:35;;;;;;;1.10;0.30;;;22.60;76.80;;;;;;5071937;28;20200;-72
2023/10/05 03:31:14;;;;;;;1.08;0.20;;;22.60;76.80;;;;;;5059681;28;20196;-72
2023/10/05 03:33:46;;;;;;;1.92;0.40;;;22.60;77.50;;;;;;5070806;28;20236;-72
2023/10/05 03:36:17;;;;;;;2.63;0.50;;;22.60;78.30;;;;;;5075346;28;20189;-73
2023/10/05 03:38:55;;;;;;;1.58;0.40;;;22.60;77.00;;;;;;5074167;28;20687;-73
2023/10/05 03:41:29;;;;;;;0.98;0.40;;;22.70;76.80;;;;;;5076874;28;20188;-74
2023/10/05 03:44:03;;;;;;;1.15;0.45;;;22.60;77.60;;;;;;5076730;28;20303;-74
2023/10/05 03:46:34;;;;;;;0.73;0.30;;;22.60;78.20;;;;;;5075361;28;20181;-77
2023/10/05 03:49:06;;;;;;;1.02;0.38;;;22.70;79.10;;;;;;5075402;28;20564;-77
2023/10/05 03:51:37;;;;;;;1.15;0.40;;;22.80;79.50;;;;;;5073959;28;20193;-75
2023/10/05 03:54:08;;;;;;;1.60;0.38;;;22.80;77.90;;;;;;5077541;28;20662;-73
2023/10/05 03:56:42;;;;;;;0.63;0.20;;;22.80;77.60;;;;;;5076624;28;20196;-76
2023/10/05 03:59:15;;;;;;;0.65;0.30;;;22.80;77.20;;;;;;5074298;28;20212;-75
2023/10/05 04:01:48;;;;;;;1.17;0.40;;;22.70;77.30;;;;;;5075317;28;20224;-75
2023/10/05 04:04:22;;;;;;;1.05;0.40;;;22.70;77.90;;;;;;5064192;28;20552;-76
2023/10/05 04:06:54;;;;;;;0.73;0.32;;;22.70;78.90;;;;;;5073215;28;20200;-80
2023/10/05 04:09:28;;;;;;;1.45;0.30;;;22.80;79.50;;;;;;5074422;28;20208;-77
2023/10/05 04:12:00;;;;;;;2.40;0.45;;;22.80;80.00;;;;;;5073034;28;20197;-77
2023/10/05 04:14:34;;;;;;;1.42;0.43;;;22.80;79.30;;;;;;5072780;28;20224;-76
2023/10/05 04:17:07;;;;;;;4.18;0.30;;;22.90;79.50;;;;;;5074472;28;20204;-76
2023/10/05 04:19:41;;;;;;;0.98;0.40;;;22.90;78.50;;;;;;5074837;28;20231;-79
2023/10/05 04:22:14;;;;;;;0.68;0.30;;;23.00;78.50;;;;;;5074810;28;20207;-78
2023/10/05 04:24:45;;;;;;;0.43;0.22;;;22.90;78.50;;;;;;5072202;28;20224;-78
2023/10/05 04:27:18;;;;;;;2.83;0.50;;;22.80;79.10;;;;;;5074991;28;20601;-77
2023/10/05 04:29:50;;;;;;;0.77;0.30;;;22.70;79.70;;;;;;5075227;28;20231;-75
2023/10/05 04:32:21;;;;;;;1.55;0.30;;;22.60;78.90;;;;;;5071713;28;20250;-77
2023/10/05 04:34:52;;;;;;;1.08;0.35;;;22.50;79.80;;;;;;5075602;28;20196;-76
2023/10/05 04:37:25;;;;;;;1.40;0.38;;;22.50;79.40;;;;;;5075293;28;20272;-78
2023/10/05 04:39:59;;;;;;;3.35;0.50;;;22.60;79.30;;;;;;5075165;28;20229;-76
2023/10/05 04:42:31;;;;;;;1.85;0.30;;;22.60;79.30;;;;;;5074741;28;20216;-76
2023/10/05 04:45:11;;;;;;;0.98;0.40;;;22.50;80.40;;;;;;5074858;28;20185;-75
2023/10/05 04:47:42;;;;;;;1.13;0.32;;;22.50;80.10;;;;;;5072766;28;20233;-76
2023/10/05 04:50:15;;;;;;;0.85;0.30;;;22.50;80.20;;;;;;5075104;28;20185;-80
2023/10/05 04:52:50;;;;;;;1.15;0.30;;;22.50;79.90;;;;;;5075948;28;20193;-77
2023/10/05 04:55:30;;;;;;;0.75;0.38;;;22.40;80.70;;;;;;5075768;28;20200;-75
2023/10/05 04:58:15;;;;;;;1.42;0.35;;;22.30;81.80;;;;;;5074657;28;20272;-76
2023/10/05 05:01:04;;;;;;;1.15;0.40;;;22.20;82.70;;;;;;5071325;28;20211;-75
2023/10/05 05:03:48;;;;;;;0.95;0.45;;;22.30;82.30;;;;;;5073891;28;20197;-77
2023/10/05 05:06:20;;;;;;;1.33;0.35;;;22.30;82.80;;;;;;5072086;28;20270;-75
2023/10/05 05:08:51;;;;;;;1.33;0.40;;;22.40;80.80;;;;;;5072370;28;20690;-75
2023/10/05 05:11:22;;;;;;;2.90;0.40;;;22.40;80.60;;;;;;5070754;28;20190;-76
2023/10/05 05:13:53;;;;;;;2.90;0.50;;;22.50;80.90;;;;;;5068579;28;20618;-73
2023/10/05 05:16:27;;;;;;;3.25;0.40;;;22.40;81.20;;;;;;5071774;28;20363;-75
2023/10/05 05:18:58;;;;;;;2.38;0.40;;;22.40;82.40;;;;;;5068594;28;20211;-74
2023/10/05 05:21:29;;;;;;;1.30;0.22;;;22.60;83.50;;;;;;5071314;28;20193;-78
2023/10/05 05:24:00;;;;;;;1.70;0.40;;;22.60;83.80;;;;;;5075127;28;20196;-76
2023/10/05 05:26:31;;;;;;;0.40;0.20;;;22.60;83.40;;;;;;5078022;28;20653;-75
2023/10/05 05:29:03;;;;;;;0.40;0.20;;;22.50;83.40;;;;;;5073584;28;20201;-74
2023/10/05 05:31:35;;;;;;;0.70;0.20;;;22.50;84.20;;;;;;5072564;28;20201;-77
2023/10/05 05:34:07;;;;;;;1.05;0.30;;;22.40;83.90;;;;;;5074315;28;20251;-74
2023/10/05 05:36:39;;;;;;;0.73;0.30;;;22.40;84.60;;;;;;5062240;28;20197;-74
2023/10/05 05:39:14;;;;;;;1.65;0.32;;;22.40;84.40;;;;;;5069243;28;20213;-74
2023/10/05 05:41:45;;;;;;;2.78;0.40;;;22.30;84.00;;;;;;5065794;28;20220;-74
2023/10/05 05:44:20;;;;;;;3.00;0.50;;;22.20;83.80;;;;;;5069005;28;20278;-76
2023/10/05 05:46:59;;;;;;;0.85;0.30;;;22.00;84.30;;;;;;5073889;28;20652;-74
2023/10/05 05:49:31;;;;;;;1.52;0.40;;;22.00;84.10;;;;;;5071633;28;20250;-76
2023/10/05 05:52:02;;;;;;;0.70;0.32;;;21.90;84.60;;;;;;5067852;28;20613;-74
2023/10/05 05:54:32;;;;;;;1.00;0.35;;;21.80;85.40;;;;;;5066367;28;20231;-73
2023/10/05 05:57:05;;;;;;;0.77;0.32;;;21.70;86.00;;;;;;5067796;28;20286;-74
2023/10/05 05:59:38;;;;;;;0.55;0.22;;;21.70;86.80;;;;;;5068516;28;20208;-74
2023/10/05 06:02:12;;;;;;;1.08;0.20;;;21.80;87.80;;;;;;5068140;28;20731;-74
2023/10/05 06:04:43;;;;;;;2.83;0.60;;;21.90;87.80;;;;;;5069166;28;20199;-75
2023/10/05 06:07:17;;;;;;;2.00;0.50;;;21.90;87.90;;;;;;5071522;28;20205;-76
2023/10/05 06:09:50;;;;;;;1.83;0.30;;;21.90;87.30;;;;;;5070304;28;20204;-74
2023/10/05 06:12:21;;;;;;;1.02;0.32;;;21.80;87.90;;;;;;5068635;28;20204;-76
2023/10/05 06:14:53;;;;;;;1.85;0.35;;;21.70;87.20;;;;;;5071149;28;20200;-74
2023/10/05 06:17:26;;;;;;;1.63;0.38;;;21.70;88.10;;;;;;5071139;28;20687;-74
2023/10/05 06:19:56;;;;;;;2.35;0.40;;;21.70;87.50;;;;;;5065935;28;20571;-74
2023/10/05 06:22:27;;;;;;;2.13;0.30;;;21.80;87.30;;;;;;5067817;28;20197;-75
2023/10/05 06:24:58;;;;;;;0.90;0.30;;;21.70;87.60;;;;;;5070570;28;20193;-74
2023/10/05 06:27:29;;;;;;;1.50;0.43;;;21.60;87.90;;;;;;5067113;28;20282;-75
2023/10/05 06:30:00;;;;;;;1.50;0.40;;;21.50;88.20;;;;;;5065177;28;20204;-75
2023/10/05 06:32:32;;;;;;;0.70;0.40;;;21.30;87.90;;;;;;5064897;28;20225;-74
2023/10/05 06:35:07;;;;;;;1.15;0.50;;;21.20;88.50;;;;;;5061265;28;20558;-74
2023/10/05 06:37:39;;;;;;;0.47;0.30;;;21.20;88.70;;;;;;5065544;28;20196;-75
2023/10/05 06:40:12;;;;;;;1.27;0.30;;;21.10;89.20;;;;;;5068200;28;20209;-75
2023/10/05 06:42:43;;;;;;;1.25;0.40;;;21.00;87.40;;;;;;5069471;28;20268;-76
2023/10/05 06:45:15;;;;;;;1.35;0.50;;;20.80;87.70;;;;;;5069987;28;20257;-74
2023/10/05 06:47:49;;;;;;;0.50;0.40;;;20.60;87.40;;;;;;5062141;28;20196;-75
2023/10/05 06:50:21;;;;;;;0.57;0.20;;;20.50;87.60;;;;;;5069253;28;20582;-77
2023/10/05 06:52:52;;;;;;;1.35;0.38;;;20.40;88.20;;;;;;5063641;28;20203;-75
2023/10/05 06:55:23;;;;;;;0.70;0.28;;;20.30;88.40;;;;;;5069318;28;20193;-75
2023/10/05 06:57:55;;;;;;;0.77;0.30;;;20.30;88.80;;;;;;5073259;28;20185;-74
2023/10/05 07:00:26;;;;;;;1.38;0.22;;;20.30;89.10;;;;;;5066619;28;20216;-74
2023/10/05 07:03:06;;;;;;;1.55;0.40;;;20.30;89.20;;;;;;5062185;28;20193;-75
2023/10/05 07:05:37;;;;;;;0.82;0.30;;;20.40;89.60;;;;;;5067466;28;20196;-79
2023/10/05 07:08:08;;;;;;;0.47;0.30;;;20.40;89.80;;;;;;5071156;28;20204;-75
2023/10/05 07:10:39;;;;;;;0.32;0.30;;;20.30;90.20;;;;;;5068853;28;20200;-75
2023/10/05 07:13:10;;;;;;;0.70;0.28;;;20.30;90.00;;;;;;5064713;28;20671;-74
2023/10/05 07:15:41;;;;;;;1.13;0.40;;;20.30;90.20;;;;;;5067089;28;20297;-75
2023/10/05 07:18:15;;;;;;;2.10;0.32;;;20.30;90.10;;;;;;5070610;28;20205;-74
2023/10/05 07:20:46;;;;;;;2.75;0.40;;;20.30;90.20;;;;;;5068833;28;20231;-75
2023/10/05 07:23:17;;;;;;;0.85;0.20;;;20.00;90.40;;;;;;5070848;28;20208;-76
2023/10/05 07:25:48;;;;;;;0.60;0.30;;;20.10;90.50;;;;;;5066608;28;20196;-74
2023/10/05 07:28:19;;;;;;;0.75;0.30;;;20.00;90.70;;;;;;5067045;28;20280;-75
2023/10/05 07:30:51;;;;;;;1.92;0.50;;;19.90;91.00;;;;;;5060197;28;20203;-75
2023/10/05 07:33:24;;;;;;;1.67;0.32;;;19.90;90.80;;;;;;5065995;28;20224;-75
2023/10/05 07:35:56;;;;;;;0.80;0.20;;;19.80;90.90;;;;;;5067952;28;20774;-76
2023/10/05 07:38:28;;;;;;;1.30;0.30;;;19.70;91.30;;;;;;5068694;28;20201;-74
2023/10/05 07:40:59;;;;;;;0.20;0.20;;;19.70;91.40;;;;;;5070035;28;20285;-74
2023/10/05 07:43:32;;;;;;;0.40;0.30;;;19.60;91.60;;;;;;5067780;28;20193;-74
2023/10/05 07:46:02;;;;;;;0.88;0.30;;;19.60;91.80;;;;;;5066923;28;20653;-74
2023/10/05 07:48:36;;;;;;;1.38;0.32;;;19.50;92.00;;;;;;5071652;28;20259;-74
2023/10/05 07:51:07;;;;;;;1.30;0.30;;;19.40;92.20;;;;;;5067363;28;20207;-75
2023/10/05 07:53:38;;;;;;;1.20;0.50;;;19.30;92.50;;;;;;5068580;28;20197;-74
2023/10/05 07:56:10;;;;;;;2.25;0.40;;;19.20;92.60;;;;;;5072414;28;20677;-75
2023/10/05 07:58:44;;;;;;;2.08;0.73;;;19.20;92.90;;;;;;5069147;28;20197;-76
2023/10/05 08:01:16;;;;;;;1.55;0.40;;;19.10;93.00;;;;;;5071856;28;20220;-76
2023/10/05 08:03:49;;;;;;;1.77;0.63;;;19.00;93.40;;;;;;5069132;28;20214;-74
2023/10/05 08:06:20;;;;;;;1.95;0.30;;;19.00;93.60;;;;;;5075278;28;20656;-75
2023/10/05 08:08:51;;;;;;;1.17;0.30;;;18.90;93.90;;;;;;5070918;28;20204;-74
2023/10/05 08:11:22;;;;;;;0.95;0.40;;;18.90;94.00;;;;;;5074554;28;20209;-75
2023/10/05 08:13:53;;;;;;;0.50;0.40;;;18.80;94.30;;;;;;5065732;28;20280;-74
2023/10/05 08:16:24;;;;;;;1.30;0.40;;;18.80;94.50;;;;;;5071847;28;20201;-75
2023/10/05 08:18:57;;;;;;;0.95;0.40;;;18.70;94.70;;;;;;5075274;28;20193;-75
2023/10/05 08:21:29;;;;;;;1.08;0.40;;;18.70;95.10;;;;;;5072862;28;20258;-75
2023/10/05 08:23:59;;;;;;;0.90;0.43;;;18.70;95.50;;;;;;5062262;28;20203;-75
2023/10/05 08:26:31;;;;;;;0.40;0.40;;;18.60;95.80;;;;;;5075404;28;20562;-75
2023/10/05 08:29:06;;;;;;;1.00;0.45;;;18.50;96.20;;;;;;5075359;28;20198;-75
2023/10/05 08:31:37;;;;;;;1.90;0.60;;;18.50;96.60;;;;;;5074281;28;20214;-75
2023/10/05 08:34:17;;;;;;;1.25;0.57;;;18.40;96.70;;;;;;5074868;28;20237;-75
2023/10/05 08:36:49;;;;;;;0.77;0.40;;;18.30;97.00;;;;;;5066335;28;20687;-75
2023/10/05 08:39:24;;;;;;;0.73;0.50;;;18.20;97.20;;;;;;5071987;28;20200;-76
2023/10/05 08:41:59;;;;;;;2.95;0.55;;;18.20;97.50;;;;;;5072041;28;20224;-75
2023/10/05 08:44:36;;;;;;;1.55;0.60;;;18.20;97.80;;;;;;5069819;28;20212;-75
2023/10/05 08:47:08;;;;;;;1.15;0.43;;;18.10;97.90;;;;;;5071584;28;20202;-75
2023/10/05 08:49:43;;;;;;;1.13;0.50;;;18.10;98.20;;;;;;5073639;28;20193;-75
2023/10/05 08:52:19;;;;;;;1.08;0.57;;;18.10;98.40;;;;;;5074749;28;20242;-75
2023/10/05 08:54:52;;;;;;;1.02;0.45;;;18.00;98.50;;;;;;5064757;28;20196;-75
2023/10/05 08:57:24;;;;;;;0.75;0.73;;;18.00;98.80;;;;;;5072693;28;20679;-76
2023/10/05 08:59:55;;;;;;;1.95;0.60;;;17.90;99.00;;;;;;5073985;28;20717;-75
2023/10/05 09:02:25;;;;;;;1.33;0.50;;;17.90;99.20;;;;;;5069451;28;20204;-75
2023/10/05 09:04:59;;;;;;;2.55;0.70;;;17.80;99.40;;;;;;5067216;28;20205;-76
2023/10/05 09:07:35;;;;;;;1.15;0.60;;;17.80;99.50;;;;;;5057773;28;20192;-76
2023/10/05 09:10:07;;;;;;;0.73;0.50;;;17.70;99.70;;;;;;5065363;28;20193;-76
2023/10/05 09:12:41;;;;;;;1.15;0.50;;;17.70;99.80;;;;;;5066235;28;20221;-76
2023/10/05 09:15:15;;;;;;;1.35;0.60;;;17.60;99.60;;;;;;5064442;28;20681;-75
2023/10/05 09:18:19;;;;;;;0.93;0.40;;;17.60;99.80;;;;;;5063315;28;20197;-75
2023/10/05 09:20:55;;;;;;;0.68;0.45;;;17.60;99.90;;;;;;5068226;28;20220;-76
2023/10/05 09:23:37;;;;;;;1.25;0.50;;;17.50;99.90;;;;;;5058392;28;20560;-76
2023/10/05 09:26:33;;;;;;;1.50;0.50;;;17.50;99.90;;;;;;5067779;28;20196;-76
2023/10/05 09:29:24;;;;;;;0.40;0.32;;;17.50;99.90;;;;;;5071438;28;20657;-75
2023/10/05 09:31:56;;;;;;;1.35;0.50;;;17.40;99.90;;;;;;5063522;28;20208;-75
2023/10/05 09:34:41;;;;;;;3.17;0.70;;;17.30;99.90;;;;;;5070282;28;20731;-75
2023/10/05 09:37:16;;;;;;;2.30;0.60;;;17.30;99.90;;;;;;5067364;28;20649;-75
2023/10/05 09:39:49;;;;;;;0.75;0.40;;;17.30;99.90;;;;;;5071516;28;20283;-75
2023/10/05 09:42:25;;;;;;;1.30;0.40;;;17.20;99.90;;;;;;5068508;28;20300;-76
2023/10/05 09:44:57;;;;;;;1.48;0.40;;;17.10;99.90;;;;;;5070461;28;20193;-76
2023/10/05 09:47:32;;;;;;;0.85;0.45;;;17.10;99.90;;;;;;5068008;28;20223;-75
2023/10/05 09:50:10;;;;;;;2.97;0.60;;;17.10;99.90;;;;;;5066343;28;20199;-75
2023/10/05 09:52:45;;;;;;;0.85;0.40;;;17.10;99.90;;;;;;5071730;28;20203;-75
2023/10/05 09:55:19;;;;;;;0.40;0.40;;;17.10;99.90;;;;;;5065675;28;20201;-75
2023/10/05 09:57:56;;;;;;;2.30;0.47;;;17.00;99.90;;;;;;5077134;28;20568;-75
2023/10/05 10:00:47;;;;;;;1.17;0.50;;;17.00;99.90;;;;;;5069981;28;20308;-76
2023/10/05 10:03:19;;;;;;;1.55;0.75;;;16.90;99.90;;;;;;5058008;28;20204;-75
2023/10/05 10:05:51;;;;;;;1.33;0.40;;;16.90;99.90;;;;;;5069019;28;20684;-75
2023/10/05 10:08:27;;;;;;;0.70;0.47;;;16.80;99.90;;;;;;5069210;28;20205;-75
2023/10/05 10:11:06;;;;;;;1.65;0.50;;;16.80;99.90;;;;;;5065788;28;20199;-74
2023/10/05 10:13:39;;;;;;;1.30;0.60;;;16.80;99.90;;;;;;5070396;28;20199;-75
2023/10/05 10:16:21;;;;;;;1.27;0.57;;;16.80;99.90;;;;;;5064453;28;20197;-74
2023/10/05 10:18:58;;;;;;;1.40;0.70;;;16.80;99.90;;;;;;5069620;28;20283;-75
2023/10/05 10:21:35;;;;;;;1.52;0.50;;;16.70;99.90;;;;;;5069582;28;20372;-75
2023/10/05 10:24:09;;;;;;;1.38;0.63;;;16.70;99.90;;;;;;5067717;28;20580;-75
2023/10/05 10:26:45;;;;;;;2.08;0.75;;;16.70;99.90;;;;;;5064519;28;20200;-76
2023/10/05 10:29:22;;;;;;;1.10;0.50;;;16.60;99.90;;;;;;5067764;28;20196;-75
2023/10/05 10:32:22;;;;;;;0.95;0.40;;;16.60;99.90;;;;;;5075269;28;20559;-74
2023/10/05 10:34:55;;;;;;;0.50;0.40;;;16.60;99.90;;;;;;5063501;28;21784;-74
2023/10/05 10:37:42;;;;;;;1.55;0.60;;;16.60;99.90;;;;;;5068720;28;20197;-74
2023/10/05 10:40:25;;;;;;;0.75;0.40;;;16.60;99.90;;;;;;5070152;28;20229;-74
2023/10/05 10:43:06;;;;;;;1.08;0.40;;;16.60;99.90;;;;;;5069511;28;20199;-74
2023/10/05 10:45:41;;;;;;;0.63;0.45;;;16.50;99.90;;;;;;5072943;28;20204;-74
2023/10/05 10:48:20;;;;;;;1.52;0.50;;;16.50;99.90;;;;;;5073312;28;20193;-74
2023/10/05 10:50:53;;;;;;;0.95;0.38;;;16.50;99.90;;;;;;5069286;28;20672;-74
2023/10/05 10:53:30;;;;;;;1.02;0.40;;;16.50;99.90;;;;;;5070175;28;20559;-74
2023/10/05 10:56:17;;;;;;;1.15;0.47;;;16.40;99.90;;;;;;5057117;28;21208;-74
2023/10/05 10:58:56;;;;;;;1.35;0.45;;;16.40;99.90;;;;;;5071022;28;20193;-75
2023/10/05 11:01:40;;;;;;;1.67;0.60;;;16.30;99.90;;;;;;5070847;28;20220;-74
2023/10/05 11:04:23;;;;;;;1.27;0.50;;;16.30;99.90;;;;;;5069842;28;20272;-75
2023/10/05 11:06:59;;;;;;;0.90;0.43;;;16.30;99.90;;;;;;5068903;28;20197;-74
2023/10/05 11:09:46;;;;;;;1.38;0.30;;;16.30;99.90;;;;;;5070893;28;20197;-74
2023/10/05 11:12:21;;;;;;;1.15;0.50;;;16.30;99.90;;;;;;5053126;28;20664;-74
2023/10/05 11:15:10;;;;;;;2.05;0.50;;;16.40;99.90;;;;;;5077046;28;20199;-74
2023/10/05 11:17:46;;;;;;;1.27;0.40;;;16.30;99.90;;;;;;5068961;28;20196;-74
2023/10/05 11:20:26;;;;;;;1.55;0.50;;;16.30;99.90;;;;;;5058817;28;20197;-75
2023/10/05 11:23:01;;;;;;;1.08;0.40;;;16.30;99.90;;;;;;5078578;28;20722;-75
2023/10/05 11:25:35;;;;;;;0.95;0.50;;;16.30;99.90;;;;;;5068033;28;20200;-75
2023/10/05 11:28:12;;;;;;;1.73;0.40;;;16.20;99.90;;;;;;5070779;28;20570;-74
2023/10/05 11:30:47;;;;;;;1.38;0.35;;;16.20;99.90;;;;;;5065832;28;20683;-74
2023/10/05 11:33:19;;;;;;;1.83;0.60;;;16.20;99.90;;;;;;5069563;28;20236;-75
2023/10/05 11:35:51;;;;;;;0.50;0.30;;;16.10;99.90;;;;;;5068624;28;20224;-75
2023/10/05 11:38:26;;;;;;;2.45;0.45;;;16.10;99.90;;;;;;5076289;28;20238;-75
2023/10/05 11:40:57;;;;;;;1.25;0.50;;;16.10;99.90;;;;;;5072585;28;20223;-75
2023/10/05 11:43:30;;;;;;;2.38;0.30;;;16.10;99.90;;;;;;5074601;28;20227;-75
2023/10/05 11:46:15;;;;;;;1.55;0.40;;;16.00;99.90;;;;;;5069661;28;20199;-75
2023/10/05 11:48:54;;;;;;;2.05;0.40;;;16.00;99.90;;;;;;5076396;28;20509;-75
2023/10/05 11:51:40;;;;;;;2.28;0.50;;;16.00;99.90;;;;;;5076562;28;20196;-75
2023/10/05 11:54:11;;;;;;;1.67;0.40;;;16.00;99.90;;;;;;5074144;28;20553;-74
2023/10/05 11:56:42;;;;;;;1.33;0.50;;;15.90;99.90;;;;;;5074923;28;20193;-75
2023/10/05 11:59:15;;;;;;;0.80;0.40;;;16.00;99.90;;;;;;5074742;28;20668;-75
2023/10/05 12:01:46;;;;;;;3.67;0.50;;;16.00;99.90;;;;;;5073402;28;20209;-75
2023/10/05 12:04:16;;;;;;;0.57;0.43;;;15.90;99.90;;;;;;5074146;28;20201;-75
2023/10/05 12:06:58;;;;;;;1.20;0.60;;;15.90;99.90;;;;;;5073237;28;20219;-75
2023/10/05 12:09:31;;;;;;;3.25;0.70;;;15.90;99.90;;;;;;5072687;28;20229;-75
2023/10/05 12:12:03;;;;;;;2.50;0.73;;;15.90;99.90;;;;;;5074897;28;20682;-75
2023/10/05 12:14:35;;;;;;;3.17;0.95;;;15.80;99.90;;;;;;5075239;28;20675;-75
2023/10/05 12:17:06;;;;;;;2.50;0.80;;;15.80;99.90;;;;;;5071688;28;20597;-75
2023/10/05 12:19:39;;;;;;;0.90;0.55;;;15.80;99.90;;;;;;5074305;28;20197;-74
2023/10/05 12:22:13;;;;;;;0.90;0.50;;;15.70;99.90;;;;;;5075099;28;20220;-74
2023/10/05 12:24:44;;;;;;;1.15;0.52;;;15.70;99.90;;;;;;5073758;28;20242;-75
2023/10/05 12:27:20;;;;;;;1.17;0.50;;;15.70;99.90;;;;;;5073981;28;20204;-75
2023/10/05 12:29:53;;;;;;;1.42;0.40;;;15.70;99.90;;;;;;5076096;28;20193;-75
2023/10/05 12:32:24;;;;;;;1.30;0.50;;;15.60;99.90;;;;;;5093949;28;20196;-76
2023/10/05 12:34:56;;;;;;;0.40;0.38;;;15.60;99.90;;;;;;5075009;28;20196;-75
2023/10/05 12:37:27;;;;;;;1.77;0.70;;;15.70;99.90;;;;;;5073744;28;20260;-74
2023/10/05 12:39:58;;;;;;;1.15;0.50;;;15.50;99.90;;;;;;5067773;28;20217;-75
2023/10/05 12:42:31;;;;;;;1.02;0.40;;;15.60;99.90;;;;;;5072811;28;20890;-75
2023/10/05 12:45:04;;;;;;;1.42;0.47;;;15.60;99.90;;;;;;5074298;28;20207;-75
2023/10/05 12:47:36;;;;;;;0.93;0.70;;;15.60;99.90;;;;;;5074237;28;20228;-74
2023/10/05 12:50:07;;;;;;;1.52;0.40;;;15.50;99.90;;;;;;5076262;28;20219;-75
2023/10/05 12:52:38;;;;;;;0.95;0.43;;;15.60;99.90;;;;;;5072364;28;20197;-74
2023/10/05 12:55:09;;;;;;;1.50;0.50;;;15.50;99.90;;;;;;5081708;28;20196;-75
2023/10/05 12:57:40;;;;;;;2.97;0.60;;;15.40;99.90;;;;;;5074518;28;20196;-75
2023/10/05 13:00:22;;;;;;;0.77;0.50;;;15.40;99.90;;;;;;5080199;28;20192;-75
2023/10/05 13:02:53;;;;;;;3.40;0.80;;;15.40;99.90;;;;;;5073473;28;20713;-74
2023/10/05 13:05:28;;;;;;;1.27;0.60;;;15.40;99.90;;;;;;5076902;28;20196;-74
2023/10/05 13:08:01;;;;;;;2.35;0.73;;;15.30;99.90;;;;;;5084352;28;20279;-75
2023/10/05 13:10:32;;;;;;;1.30;0.50;;;15.30;99.90;;;;;;5080323;28;20203;-74
2023/10/05 13:13:09;;;;;;;2.13;0.55;;;15.30;99.90;;;;;;5073730;28;20661;-74
2023/10/05 13:15:52;;;;;;;2.03;0.55;;;15.30;99.90;;;;;;5074958;28;20532;-75
2023/10/05 13:18:26;;;;;;;1.05;0.50;;;15.30;99.90;;;;;;5074971;28;20244;-75
2023/10/05 13:20:59;;;;;;;2.38;0.50;;;15.30;99.90;;;;;;5076074;28;20196;-75
2023/10/05 13:23:33;;;;;;;3.25;0.60;;;15.20;99.90;;;;;;5075554;28;20664;-75
2023/10/05 13:26:07;;;;;;;1.02;0.47;;;15.20;99.90;;;;;;5076595;28;20288;-75